Airport ID:KSMD
Update Time (UTC):28/05/2020 08:30
Wind Speed (Knots):0
Wind Direction (Magnetic):260
Temperature (°C):20.9
Dew Point (°C):19.2
Humidity (%):91.6
Altimeter (inHg):29.94
Density Altitude (Feet):02000
Visibility (Miles):10
Clouds (Hundreds of feet):OVC080
Present Weather:
METAR:METAR KSMD 280825Z AUTO 00000KT 10SM OVC075 21/19 A2994 RMK A01

The data displayed is for advisory purposes only and is not to be used for flight planning or operations.